sensor_id;sensor_type;location;lat;lon;timestamp;P1;durP1;ratioP1;P2;durP2;ratioP2
5801;SDS011;2927;49.366;8.530;2023-07-31T00:01:09;3.83;;;1.67;;
5801;SDS011;2927;49.366;8.530;2023-07-31T00:03:34;12.47;;;1.90;;
5801;SDS011;2927;49.366;8.530;2023-07-31T00:06:00;2.43;;;1.50;;
5801;SDS011;2927;49.366;8.530;2023-07-31T00:08:25;7.20;;;2.03;;
5801;SDS011;2927;49.366;8.530;2023-07-31T00:10:51;6.80;;;1.97;;
5801;SDS011;2927;49.366;8.530;2023-07-31T00:13:17;5.27;;;1.80;;
5801;SDS011;2927;49.366;8.530;2023-07-31T00:15:43;2.90;;;1.50;;
5801;SDS011;2927;49.366;8.530;2023-07-31T00:18:09;4.93;;;1.20;;
5801;SDS011;2927;49.366;8.530;2023-07-31T00:20:34;6.30;;;2.13;;
5801;SDS011;2927;49.366;8.530;2023-07-31T00:23:00;10.03;;;1.70;;
5801;SDS011;2927;49.366;8.530;2023-07-31T00:25:25;3.03;;;1.77;;
5801;SDS011;2927;49.366;8.530;2023-07-31T00:27:51;8.20;;;1.37;;
5801;SDS011;2927;49.366;8.530;2023-07-31T00:30:16;5.80;;;1.73;;
5801;SDS011;2927;49.366;8.530;2023-07-31T00:32:42;2.93;;;1.43;;
5801;SDS011;2927;49.366;8.530;2023-07-31T00:35:08;5.30;;;1.50;;
5801;SDS011;2927;49.366;8.530;2023-07-31T00:37:33;5.27;;;1.70;;
5801;SDS011;2927;49.366;8.530;2023-07-31T00:39:59;2.93;;;1.57;;
5801;SDS011;2927;49.366;8.530;2023-07-31T00:42:25;3.07;;;1.53;;
5801;SDS011;2927;49.366;8.530;2023-07-31T00:44:51;7.17;;;3.40;;
5801;SDS011;2927;49.366;8.530;2023-07-31T00:47:16;2.70;;;1.50;;
5801;SDS011;2927;49.366;8.530;2023-07-31T00:49:42;4.13;;;2.03;;
5801;SDS011;2927;49.366;8.530;2023-07-31T00:52:09;9.27;;;2.00;;
5801;SDS011;2927;49.366;8.530;2023-07-31T00:54:35;4.50;;;2.03;;
5801;SDS011;2927;49.366;8.530;2023-07-31T00:57:01;2.97;;;1.50;;
5801;SDS011;2927;49.366;8.530;2023-07-31T00:59:27;4.83;;;1.70;;
5801;SDS011;2927;49.366;8.530;2023-07-31T01:01:53;3.80;;;1.60;;
5801;SDS011;2927;49.366;8.530;2023-07-31T01:04:19;3.40;;;1.50;;
5801;SDS011;2927;49.366;8.530;2023-07-31T01:09:29;3.73;;;1.73;;
5801;SDS011;2927;49.366;8.530;2023-07-31T01:12:14;2.20;;;1.30;;
5801;SDS011;2927;49.366;8.530;2023-07-31T01:14:51;4.33;;;1.83;;
5801;SDS011;2927;49.366;8.530;2023-07-31T01:17:26;5.37;;;1.60;;
5801;SDS011;2927;49.366;8.530;2023-07-31T01:19:53;6.20;;;1.80;;
5801;SDS011;2927;49.366;8.530;2023-07-31T01:25:24;4.93;;;1.97;;
5801;SDS011;2927;49.366;8.530;2023-07-31T01:28:13;5.43;;;1.80;;
5801;SDS011;2927;49.366;8.530;2023-07-31T01:30:43;6.60;;;2.23;;
5801;SDS011;2927;49.366;8.530;2023-07-31T01:33:12;4.40;;;1.40;;
5801;SDS011;2927;49.366;8.530;2023-07-31T01:35:43;8.30;;;2.97;;
5801;SDS011;2927;49.366;8.530;2023-07-31T01:38:09;7.00;;;1.73;;
5801;SDS011;2927;49.366;8.530;2023-07-31T01:40:35;4.50;;;1.70;;
5801;SDS011;2927;49.366;8.530;2023-07-31T01:43:01;3.23;;;1.50;;
5801;SDS011;2927;49.366;8.530;2023-07-31T01:45:26;10.70;;;2.60;;
5801;SDS011;2927;49.366;8.530;2023-07-31T01:47:52;11.10;;;2.37;;
5801;SDS011;2927;49.366;8.530;2023-07-31T01:50:17;7.13;;;1.97;;
5801;SDS011;2927;49.366;8.530;2023-07-31T01:52:43;4.20;;;1.53;;
5801;SDS011;2927;49.366;8.530;2023-07-31T01:55:08;5.40;;;1.70;;
5801;SDS011;2927;49.366;8.530;2023-07-31T01:57:34;4.40;;;1.60;;
5801;SDS011;2927;49.366;8.530;2023-07-31T02:00:01;3.53;;;1.50;;
5801;SDS011;2927;49.366;8.530;2023-07-31T02:02:27;5.13;;;1.73;;
5801;SDS011;2927;49.366;8.530;2023-07-31T02:04:52;2.77;;;1.80;;
5801;SDS011;2927;49.366;8.530;2023-07-31T02:07:18;7.93;;;1.70;;
5801;SDS011;2927;49.366;8.530;2023-07-31T02:09:43;5.43;;;1.60;;
5801;SDS011;2927;49.366;8.530;2023-07-31T02:12:09;5.40;;;2.00;;
5801;SDS011;2927;49.366;8.530;2023-07-31T02:14:35;5.57;;;1.93;;
5801;SDS011;2927;49.366;8.530;2023-07-31T02:17:00;3.77;;;1.40;;
5801;SDS011;2927;49.366;8.530;2023-07-31T02:19:26;5.83;;;1.80;;
5801;SDS011;2927;49.366;8.530;2023-07-31T02:21:51;4.97;;;1.53;;
5801;SDS011;2927;49.366;8.530;2023-07-31T02:24:17;7.80;;;2.83;;
5801;SDS011;2927;49.366;8.530;2023-07-31T02:26:42;4.47;;;1.53;;
5801;SDS011;2927;49.366;8.530;2023-07-31T02:29:08;7.03;;;1.60;;
5801;SDS011;2927;49.366;8.530;2023-07-31T02:31:34;4.60;;;1.83;;
5801;SDS011;2927;49.366;8.530;2023-07-31T02:33:59;3.50;;;1.80;;
5801;SDS011;2927;49.366;8.530;2023-07-31T02:36:25;3.70;;;1.93;;
5801;SDS011;2927;49.366;8.530;2023-07-31T02:38:50;2.77;;;1.60;;
5801;SDS011;2927;49.366;8.530;2023-07-31T02:41:16;4.83;;;1.67;;
5801;SDS011;2927;49.366;8.530;2023-07-31T02:43:41;6.80;;;2.40;;
5801;SDS011;2927;49.366;8.530;2023-07-31T02:46:07;3.53;;;2.07;;
5801;SDS011;2927;49.366;8.530;2023-07-31T02:48:33;4.73;;;1.50;;
5801;SDS011;2927;49.366;8.530;2023-07-31T02:50:58;6.17;;;2.30;;
5801;SDS011;2927;49.366;8.530;2023-07-31T02:53:24;6.80;;;2.07;;
5801;SDS011;2927;49.366;8.530;2023-07-31T02:55:49;5.70;;;1.67;;
5801;SDS011;2927;49.366;8.530;2023-07-31T02:58:15;4.47;;;2.10;;
5801;SDS011;2927;49.366;8.530;2023-07-31T03:00:44;6.27;;;1.80;;
5801;SDS011;2927;49.366;8.530;2023-07-31T03:03:10;4.07;;;1.80;;
5801;SDS011;2927;49.366;8.530;2023-07-31T03:05:36;5.20;;;2.10;;
5801;SDS011;2927;49.366;8.530;2023-07-31T03:08:01;5.80;;;1.70;;
5801;SDS011;2927;49.366;8.530;2023-07-31T03:10:27;8.57;;;1.83;;
5801;SDS011;2927;49.366;8.530;2023-07-31T03:12:52;3.53;;;2.13;;
5801;SDS011;2927;49.366;8.530;2023-07-31T03:15:18;15.77;;;2.87;;
5801;SDS011;2927;49.366;8.530;2023-07-31T03:17:43;6.23;;;2.40;;
5801;SDS011;2927;49.366;8.530;2023-07-31T03:20:09;6.03;;;2.23;;
5801;SDS011;2927;49.366;8.530;2023-07-31T03:22:35;7.27;;;2.20;;
5801;SDS011;2927;49.366;8.530;2023-07-31T03:25:03;5.20;;;1.97;;
5801;SDS011;2927;49.366;8.530;2023-07-31T03:27:29;8.17;;;2.40;;
5801;SDS011;2927;49.366;8.530;2023-07-31T03:29:56;7.40;;;1.73;;
5801;SDS011;2927;49.366;8.530;2023-07-31T03:32:22;3.33;;;1.90;;
5801;SDS011;2927;49.366;8.530;2023-07-31T03:34:47;10.00;;;1.63;;
5801;SDS011;2927;49.366;8.530;2023-07-31T03:37:14;9.80;;;2.33;;
5801;SDS011;2927;49.366;8.530;2023-07-31T03:39:39;6.20;;;2.40;;
5801;SDS011;2927;49.366;8.530;2023-07-31T03:42:05;4.37;;;2.10;;
5801;SDS011;2927;49.366;8.530;2023-07-31T03:44:31;7.00;;;2.70;;
5801;SDS011;2927;49.366;8.530;2023-07-31T03:46:56;4.77;;;2.13;;
5801;SDS011;2927;49.366;8.530;2023-07-31T03:49:22;7.50;;;2.37;;
5801;SDS011;2927;49.366;8.530;2023-07-31T03:51:47;4.20;;;2.30;;
5801;SDS011;2927;49.366;8.530;2023-07-31T03:54:14;6.50;;;1.80;;
5801;SDS011;2927;49.366;8.530;2023-07-31T03:56:40;10.07;;;2.80;;
5801;SDS011;2927;49.366;8.530;2023-07-31T03:59:05;4.50;;;2.13;;
5801;SDS011;2927;49.366;8.530;2023-07-31T04:01:31;4.27;;;2.00;;
5801;SDS011;2927;49.366;8.530;2023-07-31T04:03:56;4.70;;;2.37;;
5801;SDS011;2927;49.366;8.530;2023-07-31T04:06:22;5.10;;;2.47;;
5801;SDS011;2927;49.366;8.530;2023-07-31T04:08:47;5.30;;;1.60;;
5801;SDS011;2927;49.366;8.530;2023-07-31T04:11:13;7.73;;;2.50;;
5801;SDS011;2927;49.366;8.530;2023-07-31T04:13:39;5.07;;;2.07;;
5801;SDS011;2927;49.366;8.530;2023-07-31T04:16:04;11.63;;;2.53;;
5801;SDS011;2927;49.366;8.530;2023-07-31T04:18:30;6.47;;;1.80;;
5801;SDS011;2927;49.366;8.530;2023-07-31T04:20:57;3.60;;;2.00;;
5801;SDS011;2927;49.366;8.530;2023-07-31T04:23:27;6.07;;;2.30;;
5801;SDS011;2927;49.366;8.530;2023-07-31T04:25:53;4.27;;;1.70;;
5801;SDS011;2927;49.366;8.530;2023-07-31T04:28:18;5.30;;;2.17;;
5801;SDS011;2927;49.366;8.530;2023-07-31T04:30:44;3.33;;;1.80;;
5801;SDS011;2927;49.366;8.530;2023-07-31T04:33:09;4.60;;;2.40;;
5801;SDS011;2927;49.366;8.530;2023-07-31T04:35:35;13.23;;;2.20;;
5801;SDS011;2927;49.366;8.530;2023-07-31T04:38:00;4.80;;;2.83;;
5801;SDS011;2927;49.366;8.530;2023-07-31T04:40:26;1.70;;;1.60;;
5801;SDS011;2927;49.366;8.530;2023-07-31T04:42:51;7.40;;;2.50;;
5801;SDS011;2927;49.366;8.530;2023-07-31T04:45:17;8.07;;;2.50;;
5801;SDS011;2927;49.366;8.530;2023-07-31T04:47:42;2.47;;;1.67;;
5801;SDS011;2927;49.366;8.530;2023-07-31T04:50:08;10.93;;;2.10;;
5801;SDS011;2927;49.366;8.530;2023-07-31T04:52:34;1.90;;;1.70;;
5801;SDS011;2927;49.366;8.530;2023-07-31T04:54:59;6.80;;;2.10;;
5801;SDS011;2927;49.366;8.530;2023-07-31T04:57:25;2.73;;;2.37;;
5801;SDS011;2927;49.366;8.530;2023-07-31T04:59:50;9.00;;;2.50;;
5801;SDS011;2927;49.366;8.530;2023-07-31T05:02:16;7.10;;;2.17;;
5801;SDS011;2927;49.366;8.530;2023-07-31T05:04:42;8.27;;;2.37;;
5801;SDS011;2927;49.366;8.530;2023-07-31T05:07:07;9.03;;;2.20;;
5801;SDS011;2927;49.366;8.530;2023-07-31T05:09:33;5.77;;;2.03;;
5801;SDS011;2927;49.366;8.530;2023-07-31T05:11:58;3.63;;;2.00;;
5801;SDS011;2927;49.366;8.530;2023-07-31T05:14:25;7.47;;;2.47;;
5801;SDS011;2927;49.366;8.530;2023-07-31T05:16:51;5.23;;;1.83;;
5801;SDS011;2927;49.366;8.530;2023-07-31T05:19:17;3.60;;;2.20;;
5801;SDS011;2927;49.366;8.530;2023-07-31T05:21:42;2.73;;;2.00;;
5801;SDS011;2927;49.366;8.530;2023-07-31T05:24:08;4.57;;;2.53;;
5801;SDS011;2927;49.366;8.530;2023-07-31T05:26:33;4.07;;;2.30;;
5801;SDS011;2927;49.366;8.530;2023-07-31T05:28:59;11.03;;;2.43;;
5801;SDS011;2927;49.366;8.530;2023-07-31T05:31:24;5.60;;;2.20;;
5801;SDS011;2927;49.366;8.530;2023-07-31T05:33:50;7.83;;;2.27;;
5801;SDS011;2927;49.366;8.530;2023-07-31T05:36:16;4.50;;;1.80;;
5801;SDS011;2927;49.366;8.530;2023-07-31T05:38:42;7.23;;;2.40;;
5801;SDS011;2927;49.366;8.530;2023-07-31T05:41:09;5.83;;;2.10;;
5801;SDS011;2927;49.366;8.530;2023-07-31T05:43:36;5.83;;;2.30;;
5801;SDS011;2927;49.366;8.530;2023-07-31T05:46:01;5.03;;;2.07;;
5801;SDS011;2927;49.366;8.530;2023-07-31T05:48:27;8.20;;;2.20;;
5801;SDS011;2927;49.366;8.530;2023-07-31T05:50:53;4.40;;;2.23;;
5801;SDS011;2927;49.366;8.530;2023-07-31T05:53:18;5.60;;;2.07;;
5801;SDS011;2927;49.366;8.530;2023-07-31T05:55:44;4.10;;;2.10;;
5801;SDS011;2927;49.366;8.530;2023-07-31T05:58:09;6.40;;;2.17;;
5801;SDS011;2927;49.366;8.530;2023-07-31T06:00:35;4.70;;;2.23;;
5801;SDS011;2927;49.366;8.530;2023-07-31T06:03:01;5.90;;;2.27;;
5801;SDS011;2927;49.366;8.530;2023-07-31T06:05:27;5.20;;;2.47;;
5801;SDS011;2927;49.366;8.530;2023-07-31T06:07:54;14.43;;;3.03;;
5801;SDS011;2927;49.366;8.530;2023-07-31T06:10:19;5.60;;;2.50;;
5801;SDS011;2927;49.366;8.530;2023-07-31T06:12:45;5.53;;;2.63;;
5801;SDS011;2927;49.366;8.530;2023-07-31T06:15:10;5.03;;;2.47;;
5801;SDS011;2927;49.366;8.530;2023-07-31T06:17:36;15.13;;;2.40;;
5801;SDS011;2927;49.366;8.530;2023-07-31T06:20:01;10.10;;;1.83;;
5801;SDS011;2927;49.366;8.530;2023-07-31T06:22:30;7.10;;;2.17;;
5801;SDS011;2927;49.366;8.530;2023-07-31T06:24:55;6.60;;;2.30;;
5801;SDS011;2927;49.366;8.530;2023-07-31T06:27:21;10.10;;;1.80;;
5801;SDS011;2927;49.366;8.530;2023-07-31T06:29:46;3.43;;;1.90;;
5801;SDS011;2927;49.366;8.530;2023-07-31T06:32:12;2.40;;;2.03;;
5801;SDS011;2927;49.366;8.530;2023-07-31T06:34:38;7.43;;;2.57;;
5801;SDS011;2927;49.366;8.530;2023-07-31T06:37:04;5.50;;;2.30;;
5801;SDS011;2927;49.366;8.530;2023-07-31T06:39:30;4.93;;;2.33;;
5801;SDS011;2927;49.366;8.530;2023-07-31T06:41:55;3.80;;;2.20;;
5801;SDS011;2927;49.366;8.530;2023-07-31T06:44:21;5.30;;;2.20;;
5801;SDS011;2927;49.366;8.530;2023-07-31T06:46:46;11.07;;;2.73;;
5801;SDS011;2927;49.366;8.530;2023-07-31T06:49:12;5.13;;;2.13;;
5801;SDS011;2927;49.366;8.530;2023-07-31T06:51:40;11.80;;;2.70;;
5801;SDS011;2927;49.366;8.530;2023-07-31T06:54:05;2.70;;;1.80;;
5801;SDS011;2927;49.366;8.530;2023-07-31T06:56:31;8.77;;;2.67;;
5801;SDS011;2927;49.366;8.530;2023-07-31T06:58:57;4.77;;;2.00;;
5801;SDS011;2927;49.366;8.530;2023-07-31T07:01:22;4.60;;;2.03;;
5801;SDS011;2927;49.366;8.530;2023-07-31T07:03:48;4.67;;;2.23;;
5801;SDS011;2927;49.366;8.530;2023-07-31T07:06:15;9.03;;;2.40;;
5801;SDS011;2927;49.366;8.530;2023-07-31T07:08:41;5.10;;;2.37;;
5801;SDS011;2927;49.366;8.530;2023-07-31T07:11:07;5.53;;;2.07;;
5801;SDS011;2927;49.366;8.530;2023-07-31T07:13:33;13.63;;;2.67;;
5801;SDS011;2927;49.366;8.530;2023-07-31T07:15:59;13.40;;;2.20;;
5801;SDS011;2927;49.366;8.530;2023-07-31T07:18:24;5.47;;;2.20;;
5801;SDS011;2927;49.366;8.530;2023-07-31T07:20:50;3.13;;;1.73;;
5801;SDS011;2927;49.366;8.530;2023-07-31T07:23:17;4.33;;;2.07;;
5801;SDS011;2927;49.366;8.530;2023-07-31T07:25:43;4.60;;;1.80;;
5801;SDS011;2927;49.366;8.530;2023-07-31T07:28:11;7.13;;;2.30;;
5801;SDS011;2927;49.366;8.530;2023-07-31T07:30:37;6.20;;;2.00;;
5801;SDS011;2927;49.366;8.530;2023-07-31T07:33:02;10.40;;;2.13;;
5801;SDS011;2927;49.366;8.530;2023-07-31T07:35:28;5.80;;;2.13;;
5801;SDS011;2927;49.366;8.530;2023-07-31T07:37:54;7.27;;;2.60;;
5801;SDS011;2927;49.366;8.530;2023-07-31T07:40:20;9.30;;;2.37;;
5801;SDS011;2927;49.366;8.530;2023-07-31T07:42:46;10.03;;;2.40;;
5801;SDS011;2927;49.366;8.530;2023-07-31T07:45:12;6.57;;;2.03;;
5801;SDS011;2927;49.366;8.530;2023-07-31T07:47:38;7.30;;;2.47;;
5801;SDS011;2927;49.366;8.530;2023-07-31T07:50:05;6.83;;;2.20;;
5801;SDS011;2927;49.366;8.530;2023-07-31T07:52:31;9.00;;;3.20;;
5801;SDS011;2927;49.366;8.530;2023-07-31T07:54:57;6.17;;;2.40;;
5801;SDS011;2927;49.366;8.530;2023-07-31T07:57:22;8.70;;;2.13;;
5801;SDS011;2927;49.366;8.530;2023-07-31T07:59:48;3.90;;;2.20;;
5801;SDS011;2927;49.366;8.530;2023-07-31T08:02:13;5.93;;;2.57;;
5801;SDS011;2927;49.366;8.530;2023-07-31T08:04:39;9.10;;;2.20;;
5801;SDS011;2927;49.366;8.530;2023-07-31T08:07:04;8.30;;;2.80;;
5801;SDS011;2927;49.366;8.530;2023-07-31T08:09:30;5.90;;;2.33;;
5801;SDS011;2927;49.366;8.530;2023-07-31T08:11:56;3.60;;;2.13;;
5801;SDS011;2927;49.366;8.530;2023-07-31T08:14:26;8.00;;;2.17;;
5801;SDS011;2927;49.366;8.530;2023-07-31T08:16:52;5.70;;;1.60;;
5801;SDS011;2927;49.366;8.530;2023-07-31T08:19:18;9.03;;;2.87;;
5801;SDS011;2927;49.366;8.530;2023-07-31T08:21:43;4.93;;;2.03;;
5801;SDS011;2927;49.366;8.530;2023-07-31T08:24:09;10.50;;;2.73;;
5801;SDS011;2927;49.366;8.530;2023-07-31T08:26:34;4.73;;;2.07;;
5801;SDS011;2927;49.366;8.530;2023-07-31T08:29:00;8.20;;;2.30;;
5801;SDS011;2927;49.366;8.530;2023-07-31T08:31:25;3.33;;;2.67;;
5801;SDS011;2927;49.366;8.530;2023-07-31T08:33:51;6.70;;;2.60;;
5801;SDS011;2927;49.366;8.530;2023-07-31T08:36:17;6.17;;;2.37;;
5801;SDS011;2927;49.366;8.530;2023-07-31T08:38:43;4.30;;;1.90;;
5801;SDS011;2927;49.366;8.530;2023-07-31T08:41:10;8.30;;;2.70;;
5801;SDS011;2927;49.366;8.530;2023-07-31T08:43:35;1.70;;;1.43;;
5801;SDS011;2927;49.366;8.530;2023-07-31T08:46:02;6.27;;;2.67;;
5801;SDS011;2927;49.366;8.530;2023-07-31T08:48:28;3.17;;;2.33;;
5801;SDS011;2927;49.366;8.530;2023-07-31T08:50:56;5.23;;;2.37;;
5801;SDS011;2927;49.366;8.530;2023-07-31T08:53:21;7.20;;;2.37;;
5801;SDS011;2927;49.366;8.530;2023-07-31T08:55:47;6.40;;;1.73;;
5801;SDS011;2927;49.366;8.530;2023-07-31T08:58:14;3.83;;;2.00;;
5801;SDS011;2927;49.366;8.530;2023-07-31T09:00:40;5.90;;;2.40;;
5801;SDS011;2927;49.366;8.530;2023-07-31T09:03:10;4.43;;;2.30;;
5801;SDS011;2927;49.366;8.530;2023-07-31T09:05:44;7.50;;;3.20;;
5801;SDS011;2927;49.366;8.530;2023-07-31T09:08:14;2.93;;;2.50;;
5801;SDS011;2927;49.366;8.530;2023-07-31T09:10:44;5.30;;;2.50;;
5801;SDS011;2927;49.366;8.530;2023-07-31T09:13:11;5.13;;;2.10;;
5801;SDS011;2927;49.366;8.530;2023-07-31T09:15:37;6.20;;;2.73;;
5801;SDS011;2927;49.366;8.530;2023-07-31T09:18:05;8.20;;;2.40;;
5801;SDS011;2927;49.366;8.530;2023-07-31T09:20:32;8.53;;;2.37;;
5801;SDS011;2927;49.366;8.530;2023-07-31T09:23:05;3.87;;;2.47;;
5801;SDS011;2927;49.366;8.530;2023-07-31T09:25:32;10.30;;;2.70;;
5801;SDS011;2927;49.366;8.530;2023-07-31T09:27:58;5.40;;;2.83;;
5801;SDS011;2927;49.366;8.530;2023-07-31T09:30:25;3.40;;;2.13;;
5801;SDS011;2927;49.366;8.530;2023-07-31T09:32:51;5.18;;;2.90;;
5801;SDS011;2927;49.366;8.530;2023-07-31T09:35:29;3.58;;;2.75;;
5801;SDS011;2927;49.366;8.530;2023-07-31T09:38:00;4.70;;;2.58;;
5801;SDS011;2927;49.366;8.530;2023-07-31T09:40:49;8.47;;;3.27;;
5801;SDS011;2927;49.366;8.530;2023-07-31T09:43:17;5.55;;;2.60;;
5801;SDS011;2927;49.366;8.530;2023-07-31T09:45:45;4.47;;;2.80;;
5801;SDS011;2927;49.366;8.530;2023-07-31T09:48:14;6.35;;;2.50;;
5801;SDS011;2927;49.366;8.530;2023-07-31T09:50:42;8.27;;;3.17;;
5801;SDS011;2927;49.366;8.530;2023-07-31T09:53:12;4.13;;;2.58;;
5801;SDS011;2927;49.366;8.530;2023-07-31T09:55:39;5.07;;;3.10;;
5801;SDS011;2927;49.366;8.530;2023-07-31T09:58:06;5.68;;;2.70;;
5801;SDS011;2927;49.366;8.530;2023-07-31T10:00:33;7.75;;;2.47;;
5801;SDS011;2927;49.366;8.530;2023-07-31T10:03:00;4.10;;;2.72;;
5801;SDS011;2927;49.366;8.530;2023-07-31T10:08:00;5.00;;;3.05;;
5801;SDS011;2927;49.366;8.530;2023-07-31T10:10:26;4.05;;;2.70;;
5801;SDS011;2927;49.366;8.530;2023-07-31T10:12:53;7.65;;;3.22;;
5801;SDS011;2927;49.366;8.530;2023-07-31T10:15:19;8.20;;;3.28;;
5801;SDS011;2927;49.366;8.530;2023-07-31T10:17:47;7.40;;;3.00;;
5801;SDS011;2927;49.366;8.530;2023-07-31T10:20:13;7.83;;;3.10;;
5801;SDS011;2927;49.366;8.530;2023-07-31T10:22:41;7.57;;;3.20;;
5801;SDS011;2927;49.366;8.530;2023-07-31T10:25:07;4.90;;;2.63;;
5801;SDS011;2927;49.366;8.530;2023-07-31T10:27:34;3.83;;;2.93;;
5801;SDS011;2927;49.366;8.530;2023-07-31T10:30:02;4.87;;;3.20;;
5801;SDS011;2927;49.366;8.530;2023-07-31T10:32:29;5.23;;;2.87;;
5801;SDS011;2927;49.366;8.530;2023-07-31T10:34:55;5.53;;;3.00;;
5801;SDS011;2927;49.366;8.530;2023-07-31T10:39:55;5.97;;;2.83;;
5801;SDS011;2927;49.366;8.530;2023-07-31T10:45:01;5.77;;;3.10;;
5801;SDS011;2927;49.366;8.530;2023-07-31T10:47:28;9.07;;;3.10;;
5801;SDS011;2927;49.366;8.530;2023-07-31T10:50:10;6.97;;;2.73;;
5801;SDS011;2927;49.366;8.530;2023-07-31T10:52:47;9.43;;;3.00;;
5801;SDS011;2927;49.366;8.530;2023-07-31T10:57:39;12.20;;;3.40;;
5801;SDS011;2927;49.366;8.530;2023-07-31T11:00:28;8.87;;;3.23;;
5801;SDS011;2927;49.366;8.530;2023-07-31T11:02:58;4.40;;;2.70;;
5801;SDS011;2927;49.366;8.530;2023-07-31T11:08:26;8.57;;;2.80;;
5801;SDS011;2927;49.366;8.530;2023-07-31T11:13:28;11.23;;;3.10;;
5801;SDS011;2927;49.366;8.530;2023-07-31T11:15:56;4.63;;;2.90;;
5801;SDS011;2927;49.366;8.530;2023-07-31T11:18:22;7.33;;;2.80;;
5801;SDS011;2927;49.366;8.530;2023-07-31T11:20:48;6.80;;;2.60;;
5801;SDS011;2927;49.366;8.530;2023-07-31T11:23:16;7.23;;;3.37;;
5801;SDS011;2927;49.366;8.530;2023-07-31T11:25:42;7.77;;;2.80;;
5801;SDS011;2927;49.366;8.530;2023-07-31T11:28:09;9.23;;;2.67;;
5801;SDS011;2927;49.366;8.530;2023-07-31T11:30:36;6.30;;;2.60;;
5801;SDS011;2927;49.366;8.530;2023-07-31T11:33:03;5.10;;;2.60;;
5801;SDS011;2927;49.366;8.530;2023-07-31T11:35:30;8.60;;;2.90;;
5801;SDS011;2927;49.366;8.530;2023-07-31T11:37:57;13.20;;;3.87;;
5801;SDS011;2927;49.366;8.530;2023-07-31T11:40:23;4.93;;;2.60;;
5801;SDS011;2927;49.366;8.530;2023-07-31T11:42:54;6.07;;;3.20;;
5801;SDS011;2927;49.366;8.530;2023-07-31T11:45:24;5.83;;;2.20;;
5801;SDS011;2927;49.366;8.530;2023-07-31T11:47:51;10.27;;;3.07;;
5801;SDS011;2927;49.366;8.530;2023-07-31T11:50:18;5.90;;;2.67;;
5801;SDS011;2927;49.366;8.530;2023-07-31T11:52:44;8.67;;;2.53;;
5801;SDS011;2927;49.366;8.530;2023-07-31T11:55:13;7.00;;;3.10;;
5801;SDS011;2927;49.366;8.530;2023-07-31T11:57:40;14.13;;;3.10;;
5801;SDS011;2927;49.366;8.530;2023-07-31T12:00:07;4.47;;;2.83;;
5801;SDS011;2927;49.366;8.530;2023-07-31T12:02:36;7.37;;;2.60;;
5801;SDS011;2927;49.366;8.530;2023-07-31T12:05:02;5.20;;;2.40;;
5801;SDS011;2927;49.366;8.530;2023-07-31T12:07:42;7.93;;;2.40;;
5801;SDS011;2927;49.366;8.530;2023-07-31T12:10:08;9.13;;;3.37;;
5801;SDS011;2927;49.366;8.530;2023-07-31T12:12:34;4.90;;;2.43;;
5801;SDS011;2927;49.366;8.530;2023-07-31T12:14:59;4.27;;;3.17;;
5801;SDS011;2927;49.366;8.530;2023-07-31T12:17:25;5.07;;;2.23;;
5801;SDS011;2927;49.366;8.530;2023-07-31T12:19:50;9.60;;;3.70;;
5801;SDS011;2927;49.366;8.530;2023-07-31T12:22:16;3.50;;;2.43;;
5801;SDS011;2927;49.366;8.530;2023-07-31T12:24:42;6.97;;;2.70;;
5801;SDS011;2927;49.366;8.530;2023-07-31T12:27:12;6.20;;;3.37;;
5801;SDS011;2927;49.366;8.530;2023-07-31T12:29:39;4.03;;;2.03;;
5801;SDS011;2927;49.366;8.530;2023-07-31T12:32:24;12.83;;;3.20;;
5801;SDS011;2927;49.366;8.530;2023-07-31T12:34:50;4.97;;;3.07;;
5801;SDS011;2927;49.366;8.530;2023-07-31T12:37:16;3.67;;;2.57;;
5801;SDS011;2927;49.366;8.530;2023-07-31T12:39:42;6.70;;;3.47;;
5801;SDS011;2927;49.366;8.530;2023-07-31T12:42:08;5.50;;;2.60;;
5801;SDS011;2927;49.366;8.530;2023-07-31T12:44:33;5.83;;;2.90;;
5801;SDS011;2927;49.366;8.530;2023-07-31T12:46:59;5.30;;;2.50;;
5801;SDS011;2927;49.366;8.530;2023-07-31T12:49:24;5.97;;;3.20;;
5801;SDS011;2927;49.366;8.530;2023-07-31T12:51:50;4.73;;;2.40;;
5801;SDS011;2927;49.366;8.530;2023-07-31T12:54:15;6.60;;;3.23;;
5801;SDS011;2927;49.366;8.530;2023-07-31T12:56:41;4.63;;;2.67;;
5801;SDS011;2927;49.366;8.530;2023-07-31T12:59:06;7.73;;;3.60;;
5801;SDS011;2927;49.366;8.530;2023-07-31T13:01:32;4.90;;;2.90;;
5801;SDS011;2927;49.366;8.530;2023-07-31T13:03:57;7.83;;;2.87;;
5801;SDS011;2927;49.366;8.530;2023-07-31T13:06:24;9.37;;;3.10;;
5801;SDS011;2927;49.366;8.530;2023-07-31T13:08:50;7.23;;;3.00;;
5801;SDS011;2927;49.366;8.530;2023-07-31T13:11:16;6.33;;;2.87;;
5801;SDS011;2927;49.366;8.530;2023-07-31T13:13:41;3.07;;;2.43;;
5801;SDS011;2927;49.366;8.530;2023-07-31T13:16:07;3.50;;;2.43;;
5801;SDS011;2927;49.366;8.530;2023-07-31T13:18:32;6.43;;;2.40;;
5801;SDS011;2927;49.366;8.530;2023-07-31T13:20:58;4.20;;;2.40;;
5801;SDS011;2927;49.366;8.530;2023-07-31T13:23:23;4.77;;;2.30;;
5801;SDS011;2927;49.366;8.530;2023-07-31T13:25:49;8.83;;;2.53;;
5801;SDS011;2927;49.366;8.530;2023-07-31T13:28:14;6.87;;;3.30;;
5801;SDS011;2927;49.366;8.530;2023-07-31T13:30:40;7.07;;;4.70;;
5801;SDS011;2927;49.366;8.530;2023-07-31T13:33:05;11.20;;;4.63;;
5801;SDS011;2927;49.366;8.530;2023-07-31T13:35:31;10.63;;;3.87;;
5801;SDS011;2927;49.366;8.530;2023-07-31T13:37:57;9.37;;;2.90;;
5801;SDS011;2927;49.366;8.530;2023-07-31T13:40:22;8.87;;;3.07;;
5801;SDS011;2927;49.366;8.530;2023-07-31T13:42:48;9.80;;;3.33;;
5801;SDS011;2927;49.366;8.530;2023-07-31T13:45:14;8.97;;;3.20;;
5801;SDS011;2927;49.366;8.530;2023-07-31T13:47:39;7.60;;;2.77;;
5801;SDS011;2927;49.366;8.530;2023-07-31T13:50:05;5.53;;;2.70;;
5801;SDS011;2927;49.366;8.530;2023-07-31T13:52:31;7.33;;;3.20;;
5801;SDS011;2927;49.366;8.530;2023-07-31T13:54:56;7.53;;;2.90;;
5801;SDS011;2927;49.366;8.530;2023-07-31T13:57:22;12.13;;;3.57;;
5801;SDS011;2927;49.366;8.530;2023-07-31T13:59:48;12.97;;;3.03;;
5801;SDS011;2927;49.366;8.530;2023-07-31T14:02:13;10.53;;;3.20;;
5801;SDS011;2927;49.366;8.530;2023-07-31T14:04:39;8.97;;;3.17;;
5801;SDS011;2927;49.366;8.530;2023-07-31T14:07:05;11.70;;;3.43;;
5801;SDS011;2927;49.366;8.530;2023-07-31T14:09:31;7.40;;;2.80;;
5801;SDS011;2927;49.366;8.530;2023-07-31T14:11:56;6.90;;;3.13;;
5801;SDS011;2927;49.366;8.530;2023-07-31T14:14:22;5.03;;;3.33;;
5801;SDS011;2927;49.366;8.530;2023-07-31T14:16:47;9.03;;;3.37;;
5801;SDS011;2927;49.366;8.530;2023-07-31T14:19:13;6.17;;;2.30;;
5801;SDS011;2927;49.366;8.530;2023-07-31T14:21:39;6.67;;;3.03;;
5801;SDS011;2927;49.366;8.530;2023-07-31T14:24:04;5.50;;;3.20;;
5801;SDS011;2927;49.366;8.530;2023-07-31T14:26:30;5.43;;;3.03;;
5801;SDS011;2927;49.366;8.530;2023-07-31T14:28:55;5.80;;;2.80;;
5801;SDS011;2927;49.366;8.530;2023-07-31T14:31:21;6.27;;;2.87;;
5801;SDS011;2927;49.366;8.530;2023-07-31T14:33:46;9.60;;;3.63;;
5801;SDS011;2927;49.366;8.530;2023-07-31T14:36:12;4.20;;;3.00;;
5801;SDS011;2927;49.366;8.530;2023-07-31T14:38:37;8.67;;;3.40;;
5801;SDS011;2927;49.366;8.530;2023-07-31T14:41:03;5.33;;;3.03;;
5801;SDS011;2927;49.366;8.530;2023-07-31T14:43:28;8.00;;;3.37;;
5801;SDS011;2927;49.366;8.530;2023-07-31T14:45:54;6.43;;;3.30;;
5801;SDS011;2927;49.366;8.530;2023-07-31T14:48:22;4.27;;;2.93;;
5801;SDS011;2927;49.366;8.530;2023-07-31T14:50:48;6.07;;;3.00;;
5801;SDS011;2927;49.366;8.530;2023-07-31T14:53:13;6.30;;;3.30;;
5801;SDS011;2927;49.366;8.530;2023-07-31T14:55:39;22.93;;;4.13;;
5801;SDS011;2927;49.366;8.530;2023-07-31T14:58:04;5.10;;;3.27;;
5801;SDS011;2927;49.366;8.530;2023-07-31T15:00:31;6.53;;;3.50;;
5801;SDS011;2927;49.366;8.530;2023-07-31T15:02:57;9.20;;;3.80;;
5801;SDS011;2927;49.366;8.530;2023-07-31T15:05:22;7.57;;;4.10;;
5801;SDS011;2927;49.366;8.530;2023-07-31T15:07:48;7.87;;;3.20;;
5801;SDS011;2927;49.366;8.530;2023-07-31T15:10:13;5.30;;;2.90;;
5801;SDS011;2927;49.366;8.530;2023-07-31T15:12:40;7.10;;;2.90;;
5801;SDS011;2927;49.366;8.530;2023-07-31T15:15:07;5.00;;;3.10;;
5801;SDS011;2927;49.366;8.530;2023-07-31T15:17:33;5.07;;;2.53;;
5801;SDS011;2927;49.366;8.530;2023-07-31T15:19:59;4.10;;;2.70;;
5801;SDS011;2927;49.366;8.530;2023-07-31T15:22:25;4.00;;;2.63;;
5801;SDS011;2927;49.366;8.530;2023-07-31T15:24:51;2.83;;;2.57;;
5801;SDS011;2927;49.366;8.530;2023-07-31T15:27:17;3.70;;;2.53;;
5801;SDS011;2927;49.366;8.530;2023-07-31T15:29:42;6.77;;;2.60;;
5801;SDS011;2927;49.366;8.530;2023-07-31T15:32:08;6.17;;;2.93;;